Time;durP1;ratioP1;P1;durP2;ratioP2;P2;SDS_P1;SDS_P2;PMS_P1;PMS_P2;Temp;Humidity;BMP_temperature;BMP_pressure;BME280_temperature;BME280_humidity;BME280_pressure;Samples;Min_cycle;Max_cycle;Signal;HPM_P1;HPM_P2
2023/08/16 00:04:08;;;;;;;;;;;;;;;21.11;63.51;100038.75;10325595;28;787;-71
2023/08/16 00:09:04;;;;;;;;;;;;;;;21.10;63.36;100029.13;10324908;28;769;-71
2023/08/16 00:14:00;;;;;;;;;;;;;;;21.11;63.35;100019.38;10324742;28;1894;-71
2023/08/16 00:18:56;;;;;;;;;;;;;;;21.10;63.53;100015.88;10325440;28;899;-71
2023/08/16 00:23:52;;;;;;;;;;;;;;;21.09;63.58;100010.63;10324574;28;835;-71
2023/08/16 00:28:48;;;;;;;;;;;;;;;21.10;63.41;100015.00;10324514;28;763;-71
2023/08/16 00:33:44;;;;;;;;;;;;;;;21.10;63.41;100009.72;10324199;28;1957;-71
2023/08/16 00:38:42;;;;;;;;;;;;;;;21.09;63.47;100003.56;10325454;28;1121;-71
2023/08/16 00:43:38;;;;;;;;;;;;;;;21.08;63.36;99999.19;10324846;28;838;-71
2023/08/16 00:48:34;;;;;;;;;;;;;;;21.08;63.41;99993.88;10323572;28;894;-71
2023/08/16 00:53:30;;;;;;;;;;;;;;;21.08;63.57;99991.22;10330968;28;1977;-71
2023/08/16 00:58:26;;;;;;;;;;;;;;;21.08;63.40;99980.63;10331505;28;807;-71
2023/08/16 01:03:22;;;;;;;;;;;;;;;21.07;63.42;99986.03;10331847;28;1672;-71
2023/08/16 01:08:18;;;;;;;;;;;;;;;21.06;63.49;99987.78;10331478;28;934;-71
2023/08/16 01:13:14;;;;;;;;;;;;;;;21.07;63.56;99991.31;10330888;28;1893;-71
2023/08/16 01:18:10;;;;;;;;;;;;;;;21.06;63.45;99990.44;10331335;28;835;-71
2023/08/16 01:23:06;;;;;;;;;;;;;;;21.07;63.38;100005.44;10330636;28;990;-71
2023/08/16 01:28:02;;;;;;;;;;;;;;;21.07;63.44;100007.22;10330350;28;898;-71
2023/08/16 01:32:58;;;;;;;;;;;;;;;21.05;63.38;100004.66;10330138;28;1898;-71
2023/08/16 01:37:54;;;;;;;;;;;;;;;21.04;63.32;100005.59;10330010;28;770;-71
2023/08/16 01:42:50;;;;;;;;;;;;;;;21.04;63.50;100008.25;10329161;28;1212;-71
2023/08/16 01:47:46;;;;;;;;;;;;;;;21.05;63.45;100006.44;10329638;28;831;-71
2023/08/16 01:52:41;;;;;;;;;;;;;;;21.04;63.34;99999.41;10329345;28;1964;-71
2023/08/16 01:57:37;;;;;;;;;;;;;;;21.04;63.46;100000.28;10329308;28;778;-71
2023/08/16 02:02:33;;;;;;;;;;;;;;;21.03;63.47;100003.88;10328139;28;796;-71
2023/08/16 02:07:29;;;;;;;;;;;;;;;21.02;63.50;100007.47;10329446;28;883;-71
2023/08/16 02:12:25;;;;;;;;;;;;;;;21.02;63.40;99996.88;10329183;28;1905;-71
2023/08/16 02:17:21;;;;;;;;;;;;;;;21.01;63.42;100005.72;10329675;28;783;-71
2023/08/16 02:22:17;;;;;;;;;;;;;;;21.01;63.40;100001.31;10328253;28;909;-71
2023/08/16 02:27:13;;;;;;;;;;;;;;;21.00;63.43;99991.63;10328653;28;1695;-71
2023/08/16 02:32:09;;;;;;;;;;;;;;;21.01;63.43;99997.78;10327701;28;1897;-71
2023/08/16 02:37:04;;;;;;;;;;;;;;;21.01;63.49;99997.78;10327627;28;884;-71
2023/08/16 02:42:00;;;;;;;;;;;;;;;21.00;63.50;99996.94;10327243;28;1416;-71
2023/08/16 02:46:56;;;;;;;;;;;;;;;21.00;63.47;99993.44;10328697;28;862;-71
2023/08/16 02:51:52;;;;;;;;;;;;;;;21.00;63.49;99993.44;10326981;28;1922;-71
2023/08/16 02:56:48;;;;;;;;;;;;;;;20.98;63.57;100000.59;10327762;28;858;-71
2023/08/16 03:01:44;;;;;;;;;;;;;;;20.98;63.33;100009.41;10326309;28;1001;-71
2023/08/16 03:06:40;;;;;;;;;;;;;;;20.98;63.48;100008.53;10327127;28;819;-71
2023/08/16 03:11:36;;;;;;;;;;;;;;;20.97;63.31;100015.66;10325685;28;1897;-71
2023/08/16 03:16:31;;;;;;;;;;;;;;;20.97;63.42;100020.09;10326050;28;950;-71
2023/08/16 03:21:27;;;;;;;;;;;;;;;20.96;63.45;100021.91;10326031;28;965;-71
2023/08/16 03:26:23;;;;;;;;;;;;;;;20.96;63.58;100023.69;10325871;28;766;-71
2023/08/16 03:31:19;;;;;;;;;;;;;;;20.95;63.48;100024.63;10325122;28;1969;-71
2023/08/16 03:36:15;;;;;;;;;;;;;;;20.94;63.40;100026.41;10323748;28;879;-71
2023/08/16 03:41:11;;;;;;;;;;;;;;;20.94;63.53;100034.34;10325211;28;1390;-71
2023/08/16 03:46:07;;;;;;;;;;;;;;;20.94;63.58;100034.34;10325401;28;962;-71
2023/08/16 03:51:03;;;;;;;;;;;;;;;20.94;63.61;100046.75;10325231;28;1971;-71
2023/08/16 03:55:58;;;;;;;;;;;;;;;20.93;63.42;100048.56;10325236;28;968;-71
2023/08/16 04:00:54;;;;;;;;;;;;;;;20.93;63.39;100045.91;10325199;28;835;-71
2023/08/16 04:05:50;;;;;;;;;;;;;;;20.92;63.48;100043.31;10325001;28;831;-71
2023/08/16 04:10:46;;;;;;;;;;;;;;;20.92;63.40;100046.81;10325116;28;1953;-71
2023/08/16 04:15:42;;;;;;;;;;;;;;;20.92;63.56;100045.97;10324843;28;786;-71
2023/08/16 04:20:38;;;;;;;;;;;;;;;20.91;63.57;100055.72;10324746;28;966;-71
2023/08/16 04:25:34;;;;;;;;;;;;;;;20.91;63.48;100054.88;10327930;28;882;-71
2023/08/16 04:30:30;;;;;;;;;;;;;;;20.90;63.52;100054.00;10332571;28;919;-71
2023/08/16 04:35:26;;;;;;;;;;;;;;;20.91;63.50;100062.81;10332376;28;1903;-71
2023/08/16 04:40:22;;;;;;;;;;;;;;;20.90;63.43;100063.75;10332903;28;1362;-71
2023/08/16 04:45:18;;;;;;;;;;;;;;;20.90;63.33;100058.44;10332617;28;794;-71
2023/08/16 04:50:14;;;;;;;;;;;;;;;20.89;63.36;100052.28;10333217;28;964;-71
2023/08/16 04:55:09;;;;;;;;;;;;;;;20.89;63.40;100059.38;10331479;28;1998;-71
2023/08/16 05:00:09;;;;;;;;;;;;;;;20.88;63.61;100058.53;10332678;28;866;-71
2023/08/16 05:05:05;;;;;;;;;;;;;;;20.88;63.59;100065.59;10331191;28;847;-71
2023/08/16 05:10:01;;;;;;;;;;;;;;;20.87;63.52;100064.75;10331021;28;871;-71
2023/08/16 05:14:57;;;;;;;;;;;;;;;20.88;63.45;100073.56;10330999;28;1965;-71
2023/08/16 05:19:53;;;;;;;;;;;;;;;20.86;63.48;100060.41;10331262;28;799;-70
2023/08/16 05:24:48;;;;;;;;;;;;;;;20.88;63.38;100062.94;10329962;28;871;-71
2023/08/16 05:29:44;;;;;;;;;;;;;;;20.88;63.38;100065.59;10330395;28;898;-71
2023/08/16 05:34:40;;;;;;;;;;;;;;;20.88;63.51;100069.13;10330210;28;1898;-70
2023/08/16 05:39:37;;;;;;;;;;;;;;;20.88;63.46;100070.91;10329015;28;1109;-70
2023/08/16 05:44:33;;;;;;;;;;;;;;;20.89;63.37;100059.38;10329722;28;973;-71
2023/08/16 05:49:29;;;;;;;;;;;;;;;20.90;63.32;100063.75;10330250;28;748;-69
2023/08/16 05:54:25;;;;;;;;;;;;;;;20.90;63.30;100066.38;10329322;28;2028;-70
2023/08/16 05:59:21;;;;;;;;;;;;;;;20.89;63.46;100070.00;10329172;28;907;-70
2023/08/16 06:04:17;;;;;;;;;;;;;;;20.89;63.56;100078.78;10329120;28;839;-70
2023/08/16 06:09:13;;;;;;;;;;;;;;;20.88;63.38;100084.16;10328845;28;875;-73
2023/08/16 06:14:09;;;;;;;;;;;;;;;20.88;63.36;100084.16;10329178;28;1963;-70
2023/08/16 06:19:05;;;;;;;;;;;;;;;20.88;63.43;100081.50;10328776;28;879;-71
2023/08/16 06:24:02;;;;;;;;;;;;;;;20.88;63.44;100076.19;10328758;28;863;-71
2023/08/16 06:28:57;;;;;;;;;;;;;;;20.87;63.58;100080.66;10328177;28;841;-70
2023/08/16 06:33:53;;;;;;;;;;;;;;;20.89;63.58;100088.53;10328029;28;2012;-71
2023/08/16 06:38:49;;;;;;;;;;;;;;;20.89;63.63;100099.13;10328488;28;1271;-70
2023/08/16 06:43:45;;;;;;;;;;;;;;;20.88;63.49;100108.88;10326816;28;886;-70
2023/08/16 06:48:41;;;;;;;;;;;;;;;20.88;63.57;100114.19;10327022;28;977;-72
2023/08/16 06:53:39;;;;;;;;;;;;;;;20.88;63.55;100126.53;10326848;28;1902;-72
2023/08/16 06:58:35;;;;;;;;;;;;;;;20.86;63.73;100137.25;10326804;28;851;-72
2023/08/16 07:03:31;;;;;;;;;;;;;;;20.83;63.79;100134.75;10327276;28;936;-72
2023/08/16 07:08:27;;;;;;;;;;;;;;;20.83;63.82;100141.81;10327359;28;831;-72
2023/08/16 07:13:22;;;;;;;;;;;;;;;20.83;63.61;100131.22;10326227;28;1965;-72
2023/08/16 07:18:18;;;;;;;;;;;;;;;20.83;63.56;100129.44;10326722;28;850;-71
2023/08/16 07:23:14;;;;;;;;;;;;;;;20.83;63.57;100125.91;10326019;28;889;-71
2023/08/16 07:28:10;;;;;;;;;;;;;;;20.82;63.67;100124.22;10325293;28;962;-70
2023/08/16 07:33:06;;;;;;;;;;;;;;;20.83;63.51;100133.88;10325100;28;1957;-71
2023/08/16 07:38:02;;;;;;;;;;;;;;;20.86;63.62;100142.53;10325518;28;1011;-72
2023/08/16 07:42:58;;;;;;;;;;;;;;;20.87;63.66;100154.00;10325862;28;1093;-70
2023/08/16 07:47:54;;;;;;;;;;;;;;;20.86;63.48;100147.84;10325390;28;844;-71
2023/08/16 07:52:49;;;;;;;;;;;;;;;20.87;63.44;100151.34;10325205;28;1909;-72
2023/08/16 07:57:46;;;;;;;;;;;;;;;20.85;63.69;100151.41;10325063;28;891;-72
2023/08/16 08:02:42;;;;;;;;;;;;;;;20.84;63.73;100143.53;10324307;28;860;-73
2023/08/16 08:07:38;;;;;;;;;;;;;;;20.83;63.39;100144.47;10325719;28;913;-73
2023/08/16 08:12:34;;;;;;;;;;;;;;;20.81;63.57;100147.19;10324997;28;1947;-72
2023/08/16 08:17:30;;;;;;;;;;;;;;;20.81;63.60;100160.44;10324779;28;839;-72
2023/08/16 08:22:26;;;;;;;;;;;;;;;20.81;63.78;100173.69;10324871;28;1134;-72
2023/08/16 08:27:22;;;;;;;;;;;;;;;20.79;63.71;100171.09;10324612;28;966;-72
2023/08/16 08:32:18;;;;;;;;;;;;;;;20.79;63.70;100176.41;10323841;28;1913;-72
2023/08/16 08:37:14;;;;;;;;;;;;;;;20.80;63.77;100174.63;10323886;28;901;-72
2023/08/16 08:42:10;;;;;;;;;;;;;;;20.79;63.73;100175.56;10323648;28;1303;-72
2023/08/16 08:47:07;;;;;;;;;;;;;;;20.79;63.73;100173.75;10324835;28;851;-72
2023/08/16 08:52:03;;;;;;;;;;;;;;;20.79;63.50;100180.84;10324654;28;1979;-72
2023/08/16 08:56:59;;;;;;;;;;;;;;;20.80;63.50;100182.56;10324622;28;775;-72
2023/08/16 09:01:55;;;;;;;;;;;;;;;20.79;63.72;100181.72;10323862;28;771;-72
2023/08/16 09:06:51;;;;;;;;;;;;;;;20.80;63.61;100179.91;10324036;28;831;-72
2023/08/16 09:11:47;;;;;;;;;;;;;;;20.79;63.63;100200.25;10326894;28;1894;-72
2023/08/16 09:16:43;;;;;;;;;;;;;;;20.81;63.65;100194.03;10330324;28;1064;-72
2023/08/16 09:21:39;;;;;;;;;;;;;;;20.82;63.59;100193.09;10330124;28;850;-72
2023/08/16 09:26:34;;;;;;;;;;;;;;;20.84;63.40;100186.78;10330509;28;776;-72
2023/08/16 09:31:30;;;;;;;;;;;;;;;20.85;63.41;100185.00;10330865;28;1894;-72
2023/08/16 09:36:26;;;;;;;;;;;;;;;20.85;63.54;100188.50;10330769;28;919;-72
2023/08/16 09:41:22;;;;;;;;;;;;;;;20.86;63.54;100189.38;10329997;28;1274;-73
2023/08/16 09:46:20;;;;;;;;;;;;;;;20.83;63.55;100182.44;10329784;28;915;-73
2023/08/16 09:51:16;;;;;;;;;;;;;;;20.82;63.55;100178.06;10330342;28;1977;-72
2023/08/16 09:56:12;;;;;;;;;;;;;;;20.83;63.72;100173.59;10329496;28;847;-72
2023/08/16 10:01:09;;;;;;;;;;;;;;;20.84;63.70;100167.41;10329790;28;795;-72
2023/08/16 10:06:05;;;;;;;;;;;;;;;20.83;63.79;100157.72;10329677;28;835;-71
2023/08/16 10:11:01;;;;;;;;;;;;;;;20.84;63.74;100155.00;10329962;28;1898;-72
2023/08/16 10:15:57;;;;;;;;;;;;;;;20.85;63.81;100166.44;10329312;28;940;-72
2023/08/16 10:20:53;;;;;;;;;;;;;;;20.85;63.91;100155.84;10329124;28;884;-72
2023/08/16 10:25:49;;;;;;;;;;;;;;;20.85;63.97;100161.16;10327426;28;865;-72
2023/08/16 10:30:45;;;;;;;;;;;;;;;20.85;63.91;100166.44;10328496;28;942;-72
2023/08/16 10:35:41;;;;;;;;;;;;;;;20.85;63.88;100177.03;10330500;28;1902;-72
2023/08/16 10:40:37;;;;;;;;;;;;;;;20.85;63.96;100180.53;10344229;28;1798;-72
2023/08/16 10:45:36;;;;;;;;;;;;;;;20.85;63.86;100167.28;10328178;28;791;-72
2023/08/16 10:50:32;;;;;;;;;;;;;;;20.85;63.95;100169.09;10327221;28;962;-71
2023/08/16 10:55:28;;;;;;;;;;;;;;;20.86;63.79;100170.84;10327023;28;1913;-72
2023/08/16 11:00:25;;;;;;;;;;;;;;;20.86;63.75;100165.53;10326895;28;877;-72
2023/08/16 11:05:21;;;;;;;;;;;;;;;20.85;63.68;100171.75;10327301;28;947;-72
2023/08/16 11:10:17;;;;;;;;;;;;;;;20.86;63.67;100176.13;10326695;28;942;-72
2023/08/16 11:15:12;;;;;;;;;;;;;;;20.86;63.72;100163.72;10326791;28;1902;-72
2023/08/16 11:20:09;;;;;;;;;;;;;;;20.88;63.81;100168.94;10326784;28;891;-73
2023/08/16 11:25:05;;;;;;;;;;;;;;;20.88;64.06;100168.94;10326585;28;854;-72
2023/08/16 11:30:01;;;;;;;;;;;;;;;20.87;63.97;100165.44;10325897;28;890;-72
2023/08/16 11:34:57;;;;;;;;;;;;;;;20.88;63.98;100172.47;10325226;28;1905;-73
2023/08/16 11:39:53;;;;;;;;;;;;;;;20.90;63.97;100164.44;10325328;28;1928;-73
2023/08/16 11:44:49;;;;;;;;;;;;;;;20.92;64.18;100165.22;10326445;28;1170;-73
2023/08/16 11:49:45;;;;;;;;;;;;;;;20.92;63.98;100163.41;10325426;28;820;-72
2023/08/16 11:54:41;;;;;;;;;;;;;;;20.93;63.87;100164.28;10325205;28;1909;-70
2023/08/16 11:59:37;;;;;;;;;;;;;;;20.97;64.00;100160.53;10325149;28;799;-72
2023/08/16 12:04:33;;;;;;;;;;;;;;;20.96;63.93;100161.50;10325698;28;809;-69
2023/08/16 12:09:30;;;;;;;;;;;;;;;20.93;63.98;100164.28;10325656;28;853;-70
2023/08/16 12:14:26;;;;;;;;;;;;;;;20.92;63.88;100154.63;10324917;28;1885;-70
2023/08/16 12:19:22;;;;;;;;;;;;;;;20.93;64.00;100151.03;10324175;28;1040;-72
2023/08/16 12:24:17;;;;;;;;;;;;;;;20.93;64.05;100143.06;10325254;28;842;-74
2023/08/16 12:29:13;;;;;;;;;;;;;;;20.93;64.03;100146.59;10324587;28;869;-73
2023/08/16 12:34:09;;;;;;;;;;;;;;;20.94;63.93;100147.47;10324370;28;1955;-72
2023/08/16 12:39:05;;;;;;;;;;;;;;;20.92;63.97;100128.97;10324334;28;1517;-73
2023/08/16 12:44:03;;;;;;;;;;;;;;;20.92;64.12;100130.78;10324778;28;947;-72
2023/08/16 12:48:59;;;;;;;;;;;;;;;20.89;64.07;100141.53;10329948;28;897;-72
2023/08/16 12:53:55;;;;;;;;;;;;;;;20.91;64.39;100142.31;10331842;28;1921;-72
2023/08/16 12:58:51;;;;;;;;;;;;;;;20.92;64.12;100136.06;10331974;28;883;-73
2023/08/16 13:03:47;;;;;;;;;;;;;;;20.95;64.04;100131.47;10331726;28;903;-72
2023/08/16 13:08:43;;;;;;;;;;;;;;;20.96;64.05;100129.69;10330998;28;918;-72
2023/08/16 13:13:39;;;;;;;;;;;;;;;20.96;64.12;100119.09;10330808;28;1959;-72
2023/08/16 13:18:35;;;;;;;;;;;;;;;20.96;64.14;100132.34;10330570;28;860;-72
2023/08/16 13:23:30;;;;;;;;;;;;;;;20.97;64.03;100113.69;10329862;28;1057;-72
2023/08/16 13:28:26;;;;;;;;;;;;;;;20.97;64.15;100107.53;10330323;28;754;-72
2023/08/16 13:33:22;;;;;;;;;;;;;;;20.95;64.02;100098.81;10330369;28;1898;-72
2023/08/16 13:38:18;;;;;;;;;;;;;;;20.99;64.34;100100.38;10329719;28;1087;-72
2023/08/16 13:43:14;;;;;;;;;;;;;;;20.97;64.33;100097.78;10330327;28;860;-73
2023/08/16 13:48:10;;;;;;;;;;;;;;;20.97;64.48;100111.03;10329185;28;1009;-73
2023/08/16 13:53:06;;;;;;;;;;;;;;;21.05;64.15;100109.81;10329356;28;1971;-72
2023/08/16 13:58:01;;;;;;;;;;;;;;;21.08;64.00;100099.91;10328616;28;851;-73
2023/08/16 14:02:57;;;;;;;;;;;;;;;21.00;64.04;100100.28;10329031;28;910;-72
2023/08/16 14:07:53;;;;;;;;;;;;;;;20.99;64.38;100097.72;10329996;28;831;-72
2023/08/16 14:12:49;;;;;;;;;;;;;;;20.97;64.46;100096.94;10329454;28;1894;-72
2023/08/16 14:17:45;;;;;;;;;;;;;;;20.98;64.31;100098.66;10328640;28;815;-72
2023/08/16 14:22:41;;;;;;;;;;;;;;;20.98;64.38;100091.53;10328486;28;898;-73
2023/08/16 14:27:37;;;;;;;;;;;;;;;20.99;64.37;100084.47;10329160;28;819;-72
2023/08/16 14:32:33;;;;;;;;;;;;;;;21.01;64.14;100078.16;10328119;28;1961;-72
2023/08/16 14:37:28;;;;;;;;;;;;;;;21.11;64.07;100067.06;10327863;28;932;-72
2023/08/16 14:42:24;;;;;;;;;;;;;;;21.35;63.31;100068.47;10327296;28;1433;-72
2023/08/16 14:47:20;;;;;;;;;;;;;;;21.18;63.66;100073.78;10327446;28;789;-72
2023/08/16 14:52:16;;;;;;;;;;;;;;;21.13;63.94;100075.81;10327106;28;1973;-73
2023/08/16 14:57:12;;;;;;;;;;;;;;;21.10;64.30;100075.97;10327102;28;823;-72
2023/08/16 15:02:08;;;;;;;;;;;;;;;21.10;64.01;100078.63;10326897;28;769;-72
2023/08/16 15:07:04;;;;;;;;;;;;;;;21.05;64.38;100080.66;10326648;28;866;-72
2023/08/16 15:12:00;;;;;;;;;;;;;;;21.02;64.24;100085.16;10326126;28;1898;-73
2023/08/16 15:16:56;;;;;;;;;;;;;;;21.02;64.23;100082.53;10326661;28;885;-72
2023/08/16 15:21:52;;;;;;;;;;;;;;;21.02;64.48;100081.66;10326855;28;935;-73
2023/08/16 15:26:48;;;;;;;;;;;;;;;21.00;64.33;100079.09;10326162;28;895;-72
2023/08/16 15:31:44;;;;;;;;;;;;;;;21.02;64.34;100079.03;10325254;28;1979;-73
2023/08/16 15:36:40;;;;;;;;;;;;;;;21.00;64.48;100092.34;10325743;28;791;-73
2023/08/16 15:41:35;;;;;;;;;;;;;;;20.98;64.47;100082.75;10326048;28;1202;-72
2023/08/16 15:46:31;;;;;;;;;;;;;;;20.97;64.60;100073.94;10325564;28;927;-73
2023/08/16 15:51:27;;;;;;;;;;;;;;;20.97;64.38;100073.94;10326340;28;1910;-73
2023/08/16 15:56:23;;;;;;;;;;;;;;;20.98;64.55;100067.69;10325927;28;863;-73
2023/08/16 16:01:19;;;;;;;;;;;;;;;20.98;64.64;100066.84;10325419;28;907;-73
2023/08/16 16:06:15;;;;;;;;;;;;;;;20.98;64.61;100066.84;10325178;28;937;-72
2023/08/16 16:11:11;;;;;;;;;;;;;;;20.99;64.71;100047.38;10325593;28;1894;-73
2023/08/16 16:16:07;;;;;;;;;;;;;;;20.98;64.85;100051.78;10324597;28;1005;-72
2023/08/16 16:21:02;;;;;;;;;;;;;;;20.98;64.79;100048.28;10326814;28;779;-73
2023/08/16 16:25:58;;;;;;;;;;;;;;;20.98;64.76;100041.19;10333571;28;1014;-73
2023/08/16 16:30:54;;;;;;;;;;;;;;;21.00;64.70;100022.59;10332880;28;757;-73
2023/08/16 16:35:50;;;;;;;;;;;;;;;21.01;64.54;100022.50;10332128;28;1878;-73
2023/08/16 16:40:46;;;;;;;;;;;;;;;21.01;64.39;100024.28;10332658;28;1144;-73
2023/08/16 16:45:42;;;;;;;;;;;;;;;21.00;64.67;100019.94;10332767;28;863;-73
2023/08/16 16:50:38;;;;;;;;;;;;;;;21.02;64.50;100026.00;10332372;28;773;-73
2023/08/16 16:55:34;;;;;;;;;;;;;;;21.00;64.63;100011.97;10332067;28;1957;-73
2023/08/16 17:00:30;;;;;;;;;;;;;;;21.00;64.44;100023.44;10332273;28;889;-73
2023/08/16 17:05:26;;;;;;;;;;;;;;;20.98;64.46;100021.78;10331441;28;799;-73
2023/08/16 17:10:22;;;;;;;;;;;;;;;20.97;64.48;100022.75;10331493;28;950;-73
2023/08/16 17:15:18;;;;;;;;;;;;;;;20.97;64.65;100038.66;10330864;28;1886;-73
2023/08/16 17:20:14;;;;;;;;;;;;;;;20.95;64.61;100049.31;10347809;28;853;-72
2023/08/16 17:25:09;;;;;;;;;;;;;;;20.94;64.63;100044.97;10330762;28;793;-72
2023/08/16 17:30:06;;;;;;;;;;;;;;;20.93;64.77;100035.31;10331148;28;854;-73
2023/08/16 17:35:02;;;;;;;;;;;;;;;20.93;64.58;100043.25;10330313;28;1955;-73
2023/08/16 17:39:58;;;;;;;;;;;;;;;20.93;64.62;100047.69;10329880;28;1341;-73
2023/08/16 17:44:53;;;;;;;;;;;;;;;20.93;64.69;100050.31;10330691;28;915;-74
2023/08/16 17:49:51;;;;;;;;;;;;;;;20.92;64.63;100041.53;10329804;28;1048;-73
2023/08/16 17:54:47;;;;;;;;;;;;;;;20.92;64.59;100040.69;10330337;28;1910;-73
2023/08/16 17:59:43;;;;;;;;;;;;;;;20.91;64.68;100042.47;10329416;28;874;-73
2023/08/16 18:04:39;;;;;;;;;;;;;;;20.91;64.78;100044.28;10329044;28;1013;-73
2023/08/16 18:09:35;;;;;;;;;;;;;;;20.89;64.69;100040.84;10329669;28;851;-73
2023/08/16 18:14:31;;;;;;;;;;;;;;;20.90;64.67;100053.13;10328837;28;1901;-73
2023/08/16 18:19:26;;;;;;;;;;;;;;;20.90;64.67;100047.84;10329416;28;835;-73
2023/08/16 18:24:22;;;;;;;;;;;;;;;20.89;64.79;100040.84;10327803;28;1214;-73
2023/08/16 18:29:18;;;;;;;;;;;;;;;20.88;64.68;100044.41;10328295;28;870;-73
2023/08/16 18:34:14;;;;;;;;;;;;;;;20.88;64.86;100034.69;10328611;28;1964;-73
2023/08/16 18:39:10;;;;;;;;;;;;;;;20.88;64.88;100034.69;10328020;28;1312;-73
2023/08/16 18:44:06;;;;;;;;;;;;;;;20.88;64.82;100052.34;10327016;28;859;-73
2023/08/16 18:49:02;;;;;;;;;;;;;;;20.87;64.81;100040.91;10327566;28;1677;-73
2023/08/16 18:53:58;;;;;;;;;;;;;;;20.87;64.72;100058.59;10327117;28;1977;-73
2023/08/16 18:58:54;;;;;;;;;;;;;;;20.88;64.92;100055.00;10327091;28;929;-73
2023/08/16 19:03:50;;;;;;;;;;;;;;;20.86;64.76;100051.59;10326929;28;891;-73
2023/08/16 19:08:46;;;;;;;;;;;;;;;20.87;64.79;100053.31;10326705;28;883;-73
2023/08/16 19:13:42;;;;;;;;;;;;;;;20.87;64.98;100055.94;10326050;28;1886;-73
2023/08/16 19:18:38;;;;;;;;;;;;;;;20.87;64.85;100053.31;10326983;28;803;-73
2023/08/16 19:23:33;;;;;;;;;;;;;;;20.86;64.81;100051.59;10325612;28;956;-73
2023/08/16 19:28:29;;;;;;;;;;;;;;;20.85;64.96;100050.72;10325423;28;850;-73
2023/08/16 19:33:25;;;;;;;;;;;;;;;20.85;64.95;100042.78;10325569;28;1957;-73
2023/08/16 19:38:21;;;;;;;;;;;;;;;20.86;64.97;100051.59;10326053;28;1385;-72
2023/08/16 19:43:17;;;;;;;;;;;;;;;20.85;64.81;100039.28;10325963;28;831;-73
2023/08/16 19:48:13;;;;;;;;;;;;;;;20.86;65.05;100041.00;10326128;28;1096;-72
2023/08/16 19:53:09;;;;;;;;;;;;;;;20.87;64.91;100046.19;10325365;28;1971;-72
2023/08/16 19:58:05;;;;;;;;;;;;;;;20.86;64.99;100057.75;10325353;28;957;-73
2023/08/16 20:03:01;;;;;;;;;;;;;;;20.86;64.98;100062.19;10325213;28;784;-73
2023/08/16 20:07:57;;;;;;;;;;;;;;;20.85;64.82;100053.38;10326263;28;859;-73
2023/08/16 20:12:53;;;;;;;;;;;;;;;20.85;64.98;100055.16;10325696;28;1898;-73
2023/08/16 20:17:48;;;;;;;;;;;;;;;20.84;65.00;100051.66;10324928;28;901;-73
2023/08/16 20:22:47;;;;;;;;;;;;;;;20.85;64.80;100045.41;10324848;28;854;-73
2023/08/16 20:27:43;;;;;;;;;;;;;;;20.84;64.87;100049.00;10325336;28;928;-73
2023/08/16 20:32:39;;;;;;;;;;;;;;;20.85;64.84;100063.13;10323992;28;1889;-73
2023/08/16 20:37:35;;;;;;;;;;;;;;;20.85;65.00;100074.56;10325261;28;863;-73
2023/08/16 20:42:32;;;;;;;;;;;;;;;20.85;64.97;100073.72;10325438;28;1356;-73
2023/08/16 20:47:28;;;;;;;;;;;;;;;20.84;64.90;100059.63;10324332;28;1038;-73
2023/08/16 20:52:24;;;;;;;;;;;;;;;20.84;64.81;100051.66;10324100;28;1914;-73
2023/08/16 20:57:19;;;;;;;;;;;;;;;20.83;64.80;100035.84;10324194;28;868;-73
2023/08/16 21:02:15;;;;;;;;;;;;;;;20.83;64.90;100020.81;10324095;28;867;-73
2023/08/16 21:07:11;;;;;;;;;;;;;;;20.83;64.61;100019.94;10325929;28;799;-73
2023/08/16 21:12:07;;;;;;;;;;;;;;;20.83;64.84;100004.94;10330653;28;1898;-73
2023/08/16 21:17:03;;;;;;;;;;;;;;;20.83;64.70;99999.63;10330551;28;856;-73
2023/08/16 21:21:59;;;;;;;;;;;;;;;20.83;64.73;99990.78;10330868;28;891;-73
2023/08/16 21:26:55;;;;;;;;;;;;;;;20.84;64.74;99993.38;10331404;28;805;-73
2023/08/16 21:31:51;;;;;;;;;;;;;;;20.82;64.72;99979.34;10330077;28;1951;-73
2023/08/16 21:36:47;;;;;;;;;;;;;;;20.82;64.60;99976.69;10330435;28;802;-73
2023/08/16 21:41:43;;;;;;;;;;;;;;;20.82;64.60;99968.75;10330071;28;1184;-73
2023/08/16 21:46:39;;;;;;;;;;;;;;;20.83;64.64;99972.25;10330094;28;777;-73
2023/08/16 21:51:36;;;;;;;;;;;;;;;20.82;64.66;99981.16;10329762;28;1963;-73
2023/08/16 21:56:32;;;;;;;;;;;;;;;20.83;64.61;99974.91;10329688;28;878;-73
2023/08/16 22:01:28;;;;;;;;;;;;;;;20.83;64.65;99988.16;10329495;28;772;-73
2023/08/16 22:06:24;;;;;;;;;;;;;;;20.82;64.75;99987.28;10328716;28;919;-73
2023/08/16 22:11:20;;;;;;;;;;;;;;;20.83;64.75;99988.16;10329597;28;1893;-73
2023/08/16 22:16:15;;;;;;;;;;;;;;;20.82;64.66;99992.59;10329488;28;945;-73
2023/08/16 22:21:11;;;;;;;;;;;;;;;20.83;64.47;99998.75;10327981;28;886;-73
2023/08/16 22:26:07;;;;;;;;;;;;;;;20.82;64.54;100000.53;10328437;28;795;-73
2023/08/16 22:31:03;;;;;;;;;;;;;;;20.82;64.72;100003.19;10327651;28;974;-73
2023/08/16 22:35:59;;;;;;;;;;;;;;;20.82;64.42;99999.69;10328032;28;1910;-73
2023/08/16 22:40:55;;;;;;;;;;;;;;;20.81;64.60;99990.88;10327964;28;1140;-73
2023/08/16 22:45:51;;;;;;;;;;;;;;;20.82;64.56;99994.38;10328455;28;876;-73
2023/08/16 22:50:47;;;;;;;;;;;;;;;20.83;64.41;99998.75;10326847;28;1444;-73
2023/08/16 22:55:43;;;;;;;;;;;;;;;20.82;64.53;99994.38;10327129;28;2046;-73
2023/08/16 23:00:38;;;;;;;;;;;;;;;20.82;64.59;99991.75;10327602;28;816;-73
2023/08/16 23:05:34;;;;;;;;;;;;;;;20.81;64.60;99984.75;10327491;28;807;-73
2023/08/16 23:10:30;;;;;;;;;;;;;;;20.79;64.53;99977.72;10327312;28;898;-73
2023/08/16 23:15:26;;;;;;;;;;;;;;;20.81;64.50;99971.50;10326496;28;1949;-73
2023/08/16 23:20:22;;;;;;;;;;;;;;;20.81;64.42;99968.84;10326989;28;860;-73
2023/08/16 23:25:18;;;;;;;;;;;;;;;20.81;64.45;99963.56;10326228;28;763;-73
2023/08/16 23:30:14;;;;;;;;;;;;;;;20.79;64.40;99961.81;10325972;28;923;-73
2023/08/16 23:35:09;;;;;;;;;;;;;;;20.80;64.42;99960.03;10325854;28;1967;-73
2023/08/16 23:40:06;;;;;;;;;;;;;;;20.79;64.45;99972.41;10325160;28;1257;-73
2023/08/16 23:45:02;;;;;;;;;;;;;;;20.78;64.54;99970.72;10325647;28;862;-73
2023/08/16 23:49:58;;;;;;;;;;;;;;;20.80;64.35;99981.22;10325559;28;865;-73
2023/08/16 23:54:54;;;;;;;;;;;;;;;20.79;64.52;99985.66;10325392;28;1979;-73
2023/08/16 23:59:50;;;;;;;;;;;;;;;20.79;64.44;99992.75;10325352;28;982;-73
